Time;durP1;ratioP1;P1;durP2;ratioP2;P2;SDS_P1;SDS_P2;PMS_P1;PMS_P2;Temp;Humidity;BMP_temperature;BMP_pressure;BME280_temperature;BME280_humidity;BME280_pressure;Samples;Min_cycle;Max_cycle;Signal;HPM_P1;HPM_P2
2024/01/07 00:01:59;;;;;;;1.23;1.13;;;0.10;99.90;;;;;;5057408;28;20388;-74
2024/01/07 00:04:24;;;;;;;1.20;1.10;;;0.10;99.90;;;;;;5056945;28;20124;-73
2024/01/07 00:06:50;;;;;;;1.20;1.10;;;0.10;99.90;;;;;;5056917;28;20052;-73
2024/01/07 00:09:18;;;;;;;1.70;1.60;;;0.20;99.90;;;;;;5056908;28;20557;-74
2024/01/07 00:11:44;;;;;;;1.10;1.00;;;0.20;99.90;;;;;;5056783;28;20044;-73
2024/01/07 00:14:10;;;;;;;1.20;1.10;;;0.10;99.90;;;;;;5056722;28;20195;-73
2024/01/07 00:16:35;;;;;;;1.20;1.10;;;0.10;99.90;;;;;;5056768;28;20044;-73
2024/01/07 00:19:01;;;;;;;1.20;1.10;;;0.10;99.90;;;;;;5057023;28;20049;-74
2024/01/07 00:21:26;;;;;;;1.20;1.10;;;0.10;99.90;;;;;;5056635;28;20049;-73
2024/01/07 00:23:52;;;;;;;1.60;1.50;;;0.10;99.90;;;;;;5056651;28;20445;-73
2024/01/07 00:26:17;;;;;;;1.30;1.20;;;0.10;99.90;;;;;;5056516;28;20048;-72
2024/01/07 00:28:43;;;;;;;1.85;1.27;;;0.20;99.90;;;;;;5056483;28;20579;-73
2024/01/07 00:31:11;;;;;;;1.20;1.10;;;0.10;99.90;;;;;;5056538;28;20110;-73
2024/01/07 00:33:37;;;;;;;1.92;1.77;;;0.20;99.90;;;;;;5056429;28;20068;-73
2024/01/07 00:36:03;;;;;;;1.30;1.20;;;0.10;99.90;;;;;;5056442;28;20140;-73
2024/01/07 00:38:28;;;;;;;1.40;1.30;;;0.10;99.90;;;;;;5038605;28;20481;-74
2024/01/07 00:40:54;;;;;;;1.98;1.83;;;0.10;99.90;;;;;;5056469;28;20400;-74
2024/01/07 00:43:19;;;;;;;1.30;1.20;;;0.10;99.90;;;;;;5056159;28;20057;-72
2024/01/07 00:45:45;;;;;;;1.40;1.30;;;0.10;99.90;;;;;;5056149;28;20176;-73
2024/01/07 00:48:11;;;;;;;1.23;1.13;;;0.10;99.90;;;;;;5056112;28;20052;-72
2024/01/07 00:50:36;;;;;;;1.10;1.00;;;0.20;99.90;;;;;;5056102;28;20094;-73
2024/01/07 00:53:02;;;;;;;1.33;1.23;;;0.10;99.90;;;;;;5056074;28;20431;-73
2024/01/07 00:55:27;;;;;;;1.30;1.20;;;1.20;99.90;;;;;;5056088;28;20084;-73
2024/01/07 00:57:53;;;;;;;2.08;1.98;;;0.10;99.90;;;;;;5055957;28;20494;-74
2024/01/07 01:00:19;;;;;;;1.30;1.20;;;0.00;99.90;;;;;;5055872;28;20056;-73
2024/01/07 01:02:45;;;;;;;1.20;1.10;;;0.00;99.90;;;;;;5055678;28;20408;-72
2024/01/07 01:05:11;;;;;;;1.20;1.10;;;0.00;99.90;;;;;;5055766;28;20492;-73
2024/01/07 01:07:36;;;;;;;1.20;1.10;;;0.00;99.90;;;;;;5055847;28;20095;-73
2024/01/07 01:10:02;;;;;;;1.52;1.42;;;0.10;99.90;;;;;;5037972;28;20050;-73
2024/01/07 01:12:28;;;;;;;1.20;1.10;;;0.00;99.90;;;;;;5055702;28;20041;-73
2024/01/07 01:14:53;;;;;;;1.20;1.10;;;0.00;99.90;;;;;;5055615;28;20157;-73
2024/01/07 01:17:19;;;;;;;1.88;1.77;;;0.10;99.90;;;;;;5055651;28;20048;-74
2024/01/07 01:19:45;;;;;;;1.30;1.20;;;0.10;99.90;;;;;;5055617;28;20068;-73
2024/01/07 01:22:10;;;;;;;1.20;1.10;;;0.30;99.90;;;;;;5055225;28;20045;-74
2024/01/07 01:24:36;;;;;;;1.80;1.33;;;0.00;99.90;;;;;;5055423;28;20040;-73
2024/01/07 01:27:01;;;;;;;1.20;1.10;;;0.10;99.90;;;;;;5038085;28;20052;-73
2024/01/07 01:29:27;;;;;;;1.30;1.20;;;0.00;99.90;;;;;;5055311;28;20059;-72
2024/01/07 01:31:52;;;;;;;1.40;1.30;;;0.00;99.90;;;;;;5055322;28;20056;-72
2024/01/07 01:34:18;;;;;;;1.40;1.30;;;0.00;99.90;;;;;;5055348;28;20049;-73
2024/01/07 01:36:43;;;;;;;1.40;1.30;;;0.00;99.90;;;;;;5055246;28;20472;-74
2024/01/07 01:39:09;;;;;;;1.73;1.63;;;0.00;99.90;;;;;;5055305;28;20151;-73
2024/01/07 01:41:35;;;;;;;1.20;1.10;;;0.40;99.90;;;;;;5055222;28;20076;-73
2024/01/07 01:44:01;;;;;;;1.42;1.30;;;0.60;99.90;;;;;;5054670;28;20053;-73
2024/01/07 01:46:29;;;;;;;1.42;1.33;;;0.10;99.90;;;;;;5054641;28;20049;-73
2024/01/07 01:48:55;;;;;;;4.72;4.40;;;0.00;99.90;;;;;;5054667;28;20489;-74
2024/01/07 01:51:21;;;;;;;1.30;1.20;;;0.10;99.90;;;;;;5055000;28;20052;-72
2024/01/07 01:53:49;;;;;;;2.05;1.95;;;0.10;99.90;;;;;;5055143;28;20389;-72
2024/01/07 01:56:16;;;;;;;1.30;1.20;;;0.10;99.90;;;;;;5054791;28;20499;-74
2024/01/07 01:58:42;;;;;;;1.10;1.00;;;0.10;99.90;;;;;;5054743;28;20045;-72
2024/01/07 02:01:08;;;;;;;1.20;1.10;;;0.10;99.90;;;;;;5053535;28;20041;-73
2024/01/07 02:03:33;;;;;;;1.20;1.10;;;0.10;99.90;;;;;;5054510;28;20048;-73
2024/01/07 02:05:59;;;;;;;1.20;1.10;;;0.10;99.90;;;;;;5054647;28;20049;-73
2024/01/07 02:08:26;;;;;;;1.55;1.45;;;0.10;99.90;;;;;;5054644;28;20048;-74
2024/01/07 02:10:51;;;;;;;1.20;1.10;;;0.00;99.90;;;;;;5054640;28;20052;-73
2024/01/07 02:13:17;;;;;;;1.30;1.20;;;0.10;99.90;;;;;;5054525;28;20558;-74
2024/01/07 02:15:43;;;;;;;1.40;1.30;;;0.00;99.90;;;;;;5054502;28;20068;-74
2024/01/07 02:18:09;;;;;;;1.30;1.20;;;0.00;99.90;;;;;;5054496;28;20053;-72
2024/01/07 02:20:37;;;;;;;1.40;1.30;;;0.00;99.90;;;;;;5054453;28;20477;-73
2024/01/07 02:23:04;;;;;;;1.20;1.10;;;0.00;99.90;;;;;;5054411;28;20400;-74
2024/01/07 02:25:35;;;;;;;1.10;1.00;;;0.00;99.90;;;;;;5054301;28;20065;-73
2024/01/07 02:28:01;;;;;;;1.65;1.52;;;0.00;99.90;;;;;;5054246;28;20102;-73
2024/01/07 02:30:27;;;;;;;1.30;1.20;;;0.00;99.90;;;;;;5054298;28;20044;-73
2024/01/07 02:32:52;;;;;;;1.55;1.45;;;0.00;99.90;;;;;;5054595;28;20045;-73
2024/01/07 02:35:18;;;;;;;5.47;5.15;;;0.80;99.90;;;;;;5054227;28;20618;-73
2024/01/07 02:37:43;;;;;;;1.50;1.40;;;0.00;99.90;;;;;;5054125;28;20044;-73
2024/01/07 02:40:10;;;;;;;1.20;1.10;;;0.00;99.90;;;;;;5054190;28;20432;-73
2024/01/07 02:42:35;;;;;;;1.20;1.10;;;0.10;99.90;;;;;;5053967;28;20054;-73
2024/01/07 02:45:01;;;;;;;1.23;1.13;;;0.10;99.90;;;;;;5054353;28;20053;-71
2024/01/07 02:47:26;;;;;;;1.20;1.10;;;0.10;99.90;;;;;;5053996;28;20055;-75
2024/01/07 02:49:52;;;;;;;1.40;1.30;;;0.10;99.90;;;;;;5053938;28;20119;-73
2024/01/07 02:52:17;;;;;;;1.10;1.00;;;0.10;99.90;;;;;;5053884;28;20044;-73
2024/01/07 02:54:43;;;;;;;1.10;1.00;;;0.10;99.90;;;;;;5053895;28;20041;-72
2024/01/07 02:57:09;;;;;;;1.10;1.00;;;0.10;99.90;;;;;;5053796;28;20102;-74
2024/01/07 02:59:35;;;;;;;1.30;1.20;;;0.10;99.90;;;;;;5053436;28;20128;-72
2024/01/07 03:02:00;;;;;;;1.10;1.00;;;0.10;99.90;;;;;;5053788;28;20131;-72
2024/01/07 03:04:26;;;;;;;1.40;1.30;;;0.00;99.90;;;;;;5053664;28;20037;-73
2024/01/07 03:06:52;;;;;;;1.88;1.77;;;0.10;99.90;;;;;;5053701;28;20053;-74
2024/01/07 03:09:17;;;;;;;1.27;1.17;;;0.00;99.90;;;;;;5053839;28;20124;-73
2024/01/07 03:11:43;;;;;;;1.30;1.20;;;0.10;99.90;;;;;;5053672;28;20392;-73
2024/01/07 03:14:09;;;;;;;1.67;1.58;;;0.00;99.90;;;;;;5053618;28;20473;-73
2024/01/07 03:16:35;;;;;;;1.17;1.08;;;0.00;99.90;;;;;;5053584;28;20041;-74
2024/01/07 03:19:02;;;;;;;1.20;1.10;;;0.00;99.90;;;;;;5053523;28;20404;-72
2024/01/07 03:21:27;;;;;;;1.20;1.10;;;0.00;99.90;;;;;;5053423;28;20122;-72
2024/01/07 03:23:53;;;;;;;1.20;1.10;;;0.00;99.90;;;;;;5053538;28;20045;-73
2024/01/07 03:26:20;;;;;;;1.30;1.20;;;0.00;99.90;;;;;;5053297;28;20053;-73
2024/01/07 03:28:45;;;;;;;;;;;0.00;99.90;;;;;;5053728;28;20048;-73
2024/01/07 03:31:13;;;;;;;1.20;1.10;;;0.00;99.90;;;;;;5053272;28;19921;-74
2024/01/07 03:33:40;;;;;;;1.10;1.00;;;0.00;99.90;;;;;;5053679;28;20045;-73
2024/01/07 03:36:10;;;;;;;1.00;0.90;;;0.00;99.90;;;;;;5053663;28;20441;-74
2024/01/07 03:38:36;;;;;;;2.20;2.10;;;0.00;99.90;;;;;;5053483;28;20056;-73
2024/01/07 03:41:02;;;;;;;1.10;1.00;;;0.00;99.90;;;;;;5053366;28;20507;-72
2024/01/07 03:43:28;;;;;;;1.30;1.20;;;;;;;;;;5053406;28;20068;-74
2024/01/07 03:45:54;;;;;;;1.10;1.00;;;-0.10;99.90;;;;;;5052984;28;20439;-73
2024/01/07 03:48:20;;;;;;;1.10;1.00;;;-0.10;99.90;;;;;;5053826;28;20045;-72
2024/01/07 03:50:45;;;;;;;1.20;1.10;;;-0.10;99.90;;;;;;5053472;28;20473;-73
2024/01/07 03:53:11;;;;;;;1.10;1.00;;;-0.10;99.90;;;;;;5053489;28;20376;-74
2024/01/07 03:55:37;;;;;;;1.10;1.00;;;-0.10;99.90;;;;;;5053217;28;20041;-74
2024/01/07 03:58:03;;;;;;;1.10;1.00;;;-0.20;99.90;;;;;;5052906;28;20041;-73
2024/01/07 04:00:29;;;;;;;1.10;1.00;;;-0.20;99.90;;;;;;5053263;28;20509;-73
2024/01/07 04:02:54;;;;;;;1.20;1.10;;;-0.20;99.90;;;;;;5053066;28;20063;-72
2024/01/07 04:05:20;;;;;;;1.20;1.10;;;-0.20;99.90;;;;;;5053195;28;20495;-72
2024/01/07 04:07:46;;;;;;;1.20;1.10;;;-0.20;99.90;;;;;;5053144;28;20122;-72
2024/01/07 04:10:11;;;;;;;1.20;1.10;;;-0.30;99.90;;;;;;5054138;28;20052;-73
2024/01/07 04:12:37;;;;;;;1.20;1.10;;;-0.30;99.90;;;;;;5056853;28;20155;-73
2024/01/07 04:15:04;;;;;;;1.20;1.10;;;-0.30;99.90;;;;;;5057205;28;20099;-73
2024/01/07 04:17:29;;;;;;;1.30;1.20;;;-0.30;99.90;;;;;;5056810;28;20490;-73
2024/01/07 04:19:55;;;;;;;1.23;1.13;;;-0.30;99.90;;;;;;5056768;28;20049;-73
2024/01/07 04:22:21;;;;;;;1.40;1.30;;;-0.30;99.90;;;;;;5056855;28;20128;-73
2024/01/07 04:24:46;;;;;;;1.40;1.30;;;-0.30;99.90;;;;;;5056593;28;20132;-72
2024/01/07 04:27:12;;;;;;;1.40;1.30;;;-0.30;99.90;;;;;;5056570;28;20392;-72
2024/01/07 04:29:38;;;;;;;1.30;1.20;;;-0.30;99.90;;;;;;5057155;28;20457;-72
2024/01/07 04:32:03;;;;;;;1.40;1.30;;;-0.30;99.90;;;;;;5056507;28;20127;-72
2024/01/07 04:34:29;;;;;;;1.40;1.30;;;-0.30;99.90;;;;;;5056479;28;20467;-73
2024/01/07 04:36:55;;;;;;;1.40;1.30;;;-0.40;99.90;;;;;;5056318;28;20088;-74
2024/01/07 04:39:20;;;;;;;1.30;1.20;;;-0.40;99.90;;;;;;5056357;28;20041;-72
2024/01/07 04:41:46;;;;;;;1.40;1.30;;;-0.40;99.90;;;;;;5056251;28;20068;-73
2024/01/07 04:44:11;;;;;;;1.20;1.10;;;-0.40;99.90;;;;;;5056159;28;20059;-72
2024/01/07 04:46:39;;;;;;;1.40;1.30;;;-0.50;99.90;;;;;;5056231;28;20056;-73
2024/01/07 04:49:05;;;;;;;2.42;2.22;;;-0.50;99.90;;;;;;5056199;28;20037;-73
2024/01/07 04:51:31;;;;;;;1.30;1.20;;;-0.50;99.90;;;;;;5056136;28;20128;-72
2024/01/07 04:53:57;;;;;;;1.43;1.33;;;-0.50;99.90;;;;;;5056119;28;20431;-73
2024/01/07 04:56:23;;;;;;;1.20;1.10;;;-0.50;99.90;;;;;;5056025;28;20053;-73
2024/01/07 04:58:48;;;;;;;1.13;1.02;;;-0.30;99.90;;;;;;5056008;28;20056;-74
2024/01/07 05:01:14;;;;;;;1.30;1.20;;;-0.40;99.90;;;;;;5038903;28;20496;-72
2024/01/07 05:03:40;;;;;;;1.20;1.10;;;-0.50;99.90;;;;;;5055893;28;20052;-74
2024/01/07 05:06:08;;;;;;;1.30;1.20;;;-0.50;99.90;;;;;;5055808;28;20041;-73
2024/01/07 05:08:33;;;;;;;1.48;1.38;;;-0.40;99.90;;;;;;5055798;28;20492;-73
2024/01/07 05:10:59;;;;;;;1.20;1.10;;;-0.50;99.90;;;;;;5055754;28;20056;-73
2024/01/07 05:13:25;;;;;;;1.30;1.20;;;-0.50;99.90;;;;;;5055747;28;20051;-72
2024/01/07 05:15:53;;;;;;;1.30;1.20;;;-0.50;99.90;;;;;;5055691;28;20098;-73
2024/01/07 05:18:22;;;;;;;1.42;1.33;;;-0.50;99.90;;;;;;5056165;28;20041;-74
2024/01/07 05:20:49;;;;;;;1.20;1.10;;;-0.50;99.90;;;;;;5055789;28;20051;-73
2024/01/07 05:23:14;;;;;;;1.35;1.25;;;-0.50;99.90;;;;;;5054632;28;20063;-72
2024/01/07 05:25:42;;;;;;;1.20;1.10;;;-0.50;99.90;;;;;;5055351;28;20468;-73
2024/01/07 05:28:08;;;;;;;1.20;1.10;;;-0.50;99.90;;;;;;5055880;28;20037;-72
2024/01/07 05:30:33;;;;;;;1.20;1.10;;;-0.50;99.90;;;;;;5055358;28;20041;-73
2024/01/07 05:32:59;;;;;;;1.30;1.20;;;-0.50;99.90;;;;;;5055437;28;20073;-73
2024/01/07 05:35:25;;;;;;;1.30;1.20;;;0.30;99.90;;;;;;5055514;28;20056;-73
2024/01/07 05:37:50;;;;;;;1.30;1.20;;;-0.60;99.90;;;;;;5055221;28;20044;-74
2024/01/07 05:40:16;;;;;;;1.20;1.10;;;-0.50;99.90;;;;;;5055149;28;20049;-73
2024/01/07 05:42:41;;;;;;;1.52;1.42;;;-0.60;99.90;;;;;;5055642;28;20056;-72
2024/01/07 05:45:07;;;;;;;1.23;1.13;;;-0.50;99.90;;;;;;5054974;28;20049;-73
2024/01/07 05:47:33;;;;;;;1.40;1.30;;;-0.50;99.90;;;;;;5055088;28;20469;-72
2024/01/07 05:49:59;;;;;;;1.38;1.27;;;-0.50;99.90;;;;;;5055329;28;20143;-72
2024/01/07 05:52:24;;;;;;;1.20;1.10;;;-0.30;99.90;;;;;;5055108;28;20044;-72
2024/01/07 05:54:50;;;;;;;1.20;1.10;;;-0.50;99.90;;;;;;5054672;28;20047;-73
2024/01/07 05:57:16;;;;;;;1.20;1.10;;;-0.50;99.90;;;;;;5054934;28;20094;-73
2024/01/07 05:59:43;;;;;;;1.17;1.08;;;0.20;99.90;;;;;;5055247;28;20146;-73
2024/01/07 06:02:09;;;;;;;1.20;1.10;;;-0.60;99.90;;;;;;5054793;28;20060;-78
2024/01/07 06:04:37;;;;;;;1.30;1.20;;;-0.60;99.90;;;;;;5054826;28;20045;-72
2024/01/07 06:07:03;;;;;;;1.20;1.10;;;-0.50;99.90;;;;;;5054875;28;20044;-77
2024/01/07 06:09:28;;;;;;;1.30;1.20;;;-0.50;99.90;;;;;;5054677;28;20506;-72
2024/01/07 06:11:55;;;;;;;1.30;1.20;;;-0.50;99.90;;;;;;5054578;28;20045;-72
2024/01/07 06:14:21;;;;;;;1.30;1.20;;;-0.50;99.90;;;;;;5054558;28;20053;-72
2024/01/07 06:16:47;;;;;;;1.30;1.20;;;-0.50;99.90;;;;;;5054768;28;20099;-73
2024/01/07 06:19:14;;;;;;;1.20;1.10;;;-0.50;99.90;;;;;;5054461;28;20041;-72
2024/01/07 06:21:40;;;;;;;1.20;1.10;;;-0.60;99.90;;;;;;5054426;28;20124;-71
2024/01/07 06:24:07;;;;;;;1.30;1.20;;;-0.50;99.90;;;;;;5054072;28;20565;-72
2024/01/07 06:26:33;;;;;;;1.30;1.20;;;-0.60;99.90;;;;;;5053997;28;20455;-72
2024/01/07 06:28:59;;;;;;;1.30;1.20;;;-0.50;99.90;;;;;;5054347;28;20052;-72
2024/01/07 06:31:25;;;;;;;1.30;1.20;;;-0.50;99.90;;;;;;5054196;28;20045;-73
2024/01/07 06:33:51;;;;;;;1.25;1.15;;;-0.50;99.90;;;;;;5053733;28;20094;-72
2024/01/07 06:36:16;;;;;;;1.30;1.20;;;-0.50;99.90;;;;;;5054191;28;20045;-71
2024/01/07 06:38:42;;;;;;;1.30;1.20;;;-0.50;99.90;;;;;;5054172;28;20538;-71
2024/01/07 06:41:10;;;;;;;1.30;1.20;;;-0.50;99.90;;;;;;5053975;28;20088;-72
2024/01/07 06:43:35;;;;;;;1.30;1.20;;;-0.40;99.90;;;;;;5053678;28;20072;-72
2024/01/07 06:46:01;;;;;;;1.30;1.20;;;-0.50;99.90;;;;;;5053897;28;20045;-71
2024/01/07 06:48:26;;;;;;;1.30;1.20;;;-0.50;99.90;;;;;;5054005;28;20044;-72
2024/01/07 06:50:52;;;;;;;1.20;1.10;;;0.00;99.90;;;;;;5053783;28;20366;-72
2024/01/07 06:53:18;;;;;;;1.30;1.20;;;-0.50;99.90;;;;;;5054013;28;20048;-72
2024/01/07 06:55:43;;;;;;;1.20;1.10;;;-0.50;99.90;;;;;;5053544;28;20040;-72
2024/01/07 06:58:09;;;;;;;1.30;1.20;;;-0.50;99.90;;;;;;5053825;28;20373;-72
2024/01/07 07:00:34;;;;;;;1.30;1.20;;;-0.50;99.90;;;;;;5053802;28;20091;-72
2024/01/07 07:03:00;;;;;;;1.20;1.10;;;-0.50;99.90;;;;;;5053734;28;20067;-72
2024/01/07 07:05:25;;;;;;;1.38;1.27;;;0.00;99.90;;;;;;5053711;28;20041;-75
2024/01/07 07:07:51;;;;;;;1.67;1.58;;;-0.50;99.90;;;;;;5053773;28;20055;-73
2024/01/07 07:10:16;;;;;;;1.40;1.30;;;-0.50;99.90;;;;;;5053609;28;20041;-72
2024/01/07 07:12:42;;;;;;;1.30;1.20;;;-0.50;99.90;;;;;;5053679;28;20041;-72
2024/01/07 07:15:09;;;;;;;1.30;1.20;;;0.20;99.90;;;;;;5053648;28;20477;-72
2024/01/07 07:17:36;;;;;;;1.30;1.20;;;-0.50;99.90;;;;;;5053825;28;20040;-72
2024/01/07 07:20:02;;;;;;;1.30;1.20;;;-0.40;99.90;;;;;;5053555;28;20083;-81
2024/01/07 07:22:28;;;;;;;1.30;1.20;;;-0.50;99.90;;;;;;5053454;28;20488;-73
2024/01/07 07:24:54;;;;;;;1.60;1.50;;;-0.50;99.90;;;;;;5053413;28;20123;-71
2024/01/07 07:27:19;;;;;;;1.20;1.10;;;-0.40;99.90;;;;;;5054154;28;20102;-77
2024/01/07 07:29:45;;;;;;;1.30;1.20;;;-0.50;99.90;;;;;;5054094;28;20088;-70
2024/01/07 07:32:10;;;;;;;1.40;1.30;;;-0.50;99.90;;;;;;5053603;28;20044;-72
2024/01/07 07:34:36;;;;;;;1.20;1.10;;;-0.40;99.90;;;;;;5053596;28;20045;-71
2024/01/07 07:37:03;;;;;;;1.40;1.30;;;-0.40;99.90;;;;;;5053416;28;20049;-75
2024/01/07 07:39:28;;;;;;;1.50;1.40;;;-0.50;99.90;;;;;;5053413;28;20101;-73
2024/01/07 07:41:54;;;;;;;1.30;1.20;;;-0.50;99.90;;;;;;5053828;28;20060;-73
2024/01/07 07:44:19;;;;;;;1.20;1.10;;;-0.50;99.90;;;;;;5053358;28;20081;-73
2024/01/07 07:46:45;;;;;;;1.35;1.25;;;-0.50;99.90;;;;;;5057300;28;20401;-73
2024/01/07 07:49:11;;;;;;;1.30;1.20;;;-0.60;99.90;;;;;;5057345;28;20037;-73
2024/01/07 07:51:36;;;;;;;1.30;1.20;;;-0.60;99.90;;;;;;5057309;28;20110;-72
2024/01/07 07:54:03;;;;;;;1.40;1.30;;;-0.60;99.90;;;;;;5057167;28;20049;-71
2024/01/07 07:56:29;;;;;;;1.30;1.20;;;-0.60;99.90;;;;;;5057219;28;20049;-71
2024/01/07 07:58:54;;;;;;;1.30;1.20;;;-0.60;99.90;;;;;;5057199;28;20057;-71
2024/01/07 08:01:20;;;;;;;1.38;1.27;;;-0.60;99.90;;;;;;5057092;28;20055;-72
2024/01/07 08:03:45;;;;;;;1.40;1.30;;;-0.60;99.90;;;;;;5057268;28;20043;-70
2024/01/07 08:06:11;;;;;;;1.30;1.20;;;-0.60;99.90;;;;;;5056943;28;20472;-71
2024/01/07 08:08:37;;;;;;;1.33;1.23;;;-0.60;99.90;;;;;;5056958;28;20044;-73
2024/01/07 08:11:05;;;;;;;1.30;1.20;;;-0.60;99.90;;;;;;5057424;28;20037;-71
2024/01/07 08:13:31;;;;;;;1.30;1.20;;;-0.60;99.90;;;;;;5056839;28;20056;-69
2024/01/07 08:15:56;;;;;;;1.30;1.20;;;-0.70;99.90;;;;;;5056820;28;20037;-71
2024/01/07 08:18:22;;;;;;;1.30;1.20;;;-0.70;99.90;;;;;;5057000;28;20049;-71
2024/01/07 08:20:47;;;;;;;1.30;1.20;;;-0.70;99.90;;;;;;5056927;28;20041;-72
2024/01/07 08:23:13;;;;;;;1.20;1.10;;;-0.70;99.90;;;;;;5056688;28;20464;-71
2024/01/07 08:25:39;;;;;;;1.30;1.20;;;-0.50;99.90;;;;;;5056623;28;20099;-70
2024/01/07 08:28:05;;;;;;;1.30;1.20;;;-0.80;99.90;;;;;;5056618;28;20041;-72
2024/01/07 08:30:30;;;;;;;1.30;1.20;;;-0.80;99.90;;;;;;5056571;28;20063;-72
2024/01/07 08:32:56;;;;;;;1.30;1.20;;;-0.90;99.90;;;;;;5056535;28;20084;-72
2024/01/07 08:35:22;;;;;;;1.35;1.25;;;-0.90;99.90;;;;;;5056299;28;20578;-71
2024/01/07 08:37:47;;;;;;;1.30;1.20;;;-0.90;99.90;;;;;;5055046;28;20120;-72
2024/01/07 08:40:13;;;;;;;1.30;1.20;;;-0.90;99.90;;;;;;5054746;28;20472;-72
2024/01/07 08:42:39;;;;;;;1.40;1.30;;;-0.90;99.90;;;;;;5054855;28;20468;-72
2024/01/07 08:45:05;;;;;;;1.40;1.30;;;-0.90;99.90;;;;;;5054253;28;20080;-72
2024/01/07 08:47:31;;;;;;;1.30;1.20;;;-0.90;99.90;;;;;;5053821;28;20515;-72
2024/01/07 08:49:57;;;;;;;1.30;1.20;;;-1.40;99.90;;;;;;5053929;28;20089;-71
2024/01/07 08:52:23;;;;;;;1.37;1.27;;;-0.90;99.90;;;;;;5053772;28;20431;-72
2024/01/07 08:54:49;;;;;;;1.30;1.20;;;-0.90;99.90;;;;;;5053954;28;20345;-72
2024/01/07 08:57:15;;;;;;;1.40;1.30;;;-0.90;99.90;;;;;;5052826;28;20041;-72
2024/01/07 08:59:40;;;;;;;1.30;1.20;;;-0.90;99.90;;;;;;5055837;28;20130;-72
2024/01/07 09:02:06;;;;;;;1.30;1.20;;;-0.30;99.90;;;;;;5056022;28;20037;-72
2024/01/07 09:04:33;;;;;;;1.30;1.20;;;-0.10;99.90;;;;;;5055828;28;20541;-72
2024/01/07 09:06:59;;;;;;;1.30;1.20;;;-0.80;99.90;;;;;;5055898;28;20077;-72
2024/01/07 09:09:24;;;;;;;1.40;1.30;;;-0.80;99.90;;;;;;5055800;28;20087;-72
2024/01/07 09:11:51;;;;;;;1.30;1.20;;;-0.80;99.90;;;;;;5055797;28;20053;-72
2024/01/07 09:14:17;;;;;;;1.20;1.10;;;-0.80;99.90;;;;;;5055770;28;20071;-72
2024/01/07 09:16:43;;;;;;;1.30;1.20;;;-0.10;99.90;;;;;;5055670;28;20036;-73
2024/01/07 09:19:08;;;;;;;1.30;1.20;;;-0.70;99.90;;;;;;5055631;28;20051;-73
2024/01/07 09:21:34;;;;;;;1.40;1.30;;;-0.70;99.90;;;;;;5055372;28;20047;-72
2024/01/07 09:23:59;;;;;;;1.33;1.23;;;-0.70;99.90;;;;;;5055487;28;20150;-73
2024/01/07 09:26:25;;;;;;;1.30;1.20;;;-0.60;99.90;;;;;;5055588;28;20099;-71
2024/01/07 09:28:51;;;;;;;1.30;1.20;;;-0.60;99.90;;;;;;5055836;28;20049;-72
2024/01/07 09:31:17;;;;;;;1.40;1.30;;;-0.60;99.90;;;;;;5055384;28;20045;-71
2024/01/07 09:33:43;;;;;;;1.30;1.20;;;-0.50;99.90;;;;;;5055377;28;20052;-72
2024/01/07 09:36:08;;;;;;;1.30;1.20;;;-0.50;99.90;;;;;;5055323;28;20045;-71
2024/01/07 09:38:34;;;;;;;1.30;1.20;;;-0.50;99.90;;;;;;5055276;28;20041;-71
2024/01/07 09:41:00;;;;;;;1.40;1.30;;;-0.50;99.90;;;;;;5055182;28;20123;-72
2024/01/07 09:43:25;;;;;;;1.50;1.40;;;-0.40;99.90;;;;;;5055216;28;20566;-71
2024/01/07 09:45:53;;;;;;;1.40;1.30;;;-0.30;99.90;;;;;;5055066;28;20077;-71
2024/01/07 09:48:19;;;;;;;1.27;1.17;;;-0.30;99.90;;;;;;5055153;28;20048;-72
2024/01/07 09:50:44;;;;;;;1.27;1.17;;;-0.30;99.90;;;;;;5055049;28;20053;-73
2024/01/07 09:53:16;;;;;;;1.30;1.20;;;0.10;99.90;;;;;;5055019;28;20049;-72
2024/01/07 09:56:17;;;;;;;1.30;1.20;;;-0.10;99.90;;;;;;5055211;28;20079;-73
2024/01/07 09:58:43;;;;;;;1.30;1.20;;;-0.10;99.90;;;;;;5054917;28;20052;-72
2024/01/07 10:01:10;;;;;;;1.40;1.30;;;0.00;99.90;;;;;;5055046;28;20389;-72
2024/01/07 10:03:35;;;;;;;1.30;1.20;;;0.00;99.90;;;;;;5054751;28;20438;-71
2024/01/07 10:06:02;;;;;;;1.30;1.20;;;0.10;99.90;;;;;;5036729;28;20049;-71
2024/01/07 10:08:27;;;;;;;1.30;1.20;;;0.10;99.90;;;;;;5054313;28;20048;-72
2024/01/07 10:10:53;;;;;;;1.20;1.10;;;0.10;99.90;;;;;;5055011;28;20143;-72
2024/01/07 10:13:22;;;;;;;3.67;3.47;;;0.10;99.90;;;;;;5054637;28;20511;-72
2024/01/07 10:15:48;;;;;;;1.30;1.20;;;0.10;99.90;;;;;;5054570;28;20045;-72
2024/01/07 10:18:14;;;;;;;1.30;1.20;;;0.10;99.90;;;;;;5054576;28;20055;-71
2024/01/07 10:20:39;;;;;;;1.30;1.20;;;0.10;99.90;;;;;;5054451;28;20120;-72
2024/01/07 10:23:07;;;;;;;1.40;1.30;;;0.10;99.90;;;;;;5054397;28;20041;-72
2024/01/07 10:25:35;;;;;;;1.30;1.20;;;0.10;99.90;;;;;;5053873;28;20091;-72
2024/01/07 10:28:01;;;;;;;1.20;1.10;;;0.10;99.90;;;;;;5054140;28;20056;-70
2024/01/07 10:30:28;;;;;;;1.30;1.20;;;0.10;99.90;;;;;;5054125;28;20084;-70
2024/01/07 10:32:59;;;;;;;1.30;1.20;;;0.10;99.90;;;;;;5054142;28;20037;-71
2024/01/07 10:35:33;;;;;;;1.20;1.10;;;0.20;99.90;;;;;;5054118;28;20041;-72
2024/01/07 10:37:59;;;;;;;1.30;1.20;;;0.20;99.90;;;;;;5054266;28;20437;-72
2024/01/07 10:40:27;;;;;;;1.30;1.20;;;0.30;99.90;;;;;;5054323;28;20123;-72
2024/01/07 10:42:54;;;;;;;1.30;1.20;;;0.30;99.90;;;;;;5036306;28;20049;-71
2024/01/07 10:45:19;;;;;;;;;;;0.30;99.90;;;;;;5054447;28;20037;-72
2024/01/07 10:47:50;;;;;;;1.30;1.20;;;0.30;99.90;;;;;;5053919;28;20011;-71
2024/01/07 10:50:17;;;;;;;1.20;1.10;;;0.40;99.90;;;;;;5054458;28;20518;-71
2024/01/07 10:52:46;;;;;;;1.30;1.20;;;0.40;99.90;;;;;;5053863;28;20056;-70
2024/01/07 10:55:16;;;;;;;1.23;1.13;;;0.40;99.90;;;;;;5036027;28;20055;-70
2024/01/07 10:57:47;;;;;;;1.20;1.10;;;0.40;99.90;;;;;;5053626;28;20481;-72
2024/01/07 11:00:19;;;;;;;1.20;1.10;;;0.40;99.90;;;;;;5053730;28;20044;-71
2024/01/07 11:03:04;;;;;;;1.20;1.10;;;0.40;99.90;;;;;;5053749;28;20048;-70
2024/01/07 11:05:50;;;;;;;1.30;1.20;;;0.40;99.90;;;;;;5053650;28;20045;-69
2024/01/07 11:08:31;;;;;;;1.20;1.10;;;0.40;99.90;;;;;;5053694;28;20041;-70
2024/01/07 11:11:06;;;;;;;1.20;1.10;;;0.50;99.90;;;;;;5053415;28;20519;-69
2024/01/07 11:13:37;;;;;;;1.20;1.10;;;0.50;99.90;;;;;;5052689;28;20084;-71
2024/01/07 11:16:09;;;;;;;1.25;1.15;;;0.50;99.90;;;;;;5045431;28;20041;-68
2024/01/07 11:18:39;;;;;;;1.42;1.33;;;0.60;99.90;;;;;;5044315;28;20052;-70
2024/01/07 11:21:06;;;;;;;1.30;1.20;;;0.50;99.90;;;;;;5052743;28;20045;-72
2024/01/07 11:23:39;;;;;;;1.50;1.40;;;0.60;99.90;;;;;;5041788;28;20081;-72
2024/01/07 11:26:06;;;;;;;1.20;1.10;;;0.60;99.90;;;;;;5033571;28;20041;-72
2024/01/07 11:28:57;;;;;;;1.20;1.10;;;0.70;99.90;;;;;;5043256;28;20144;-71
2024/01/07 11:31:41;;;;;;;1.20;1.10;;;0.70;99.90;;;;;;5053393;28;20048;-72
2024/01/07 11:34:08;;;;;;;1.20;1.10;;;0.70;99.90;;;;;;5044420;28;20159;-71
2024/01/07 11:36:36;;;;;;;1.30;1.20;;;0.80;99.90;;;;;;5032868;28;20080;-73
2024/01/07 11:39:02;;;;;;;1.20;1.10;;;0.80;99.90;;;;;;5033422;28;20057;-73
2024/01/07 11:41:32;;;;;;;1.30;1.20;;;0.80;99.90;;;;;;5053405;28;20052;-73
2024/01/07 11:43:59;;;;;;;2.10;2.00;;;0.70;99.90;;;;;;5036896;28;20408;-74
2024/01/07 11:46:29;;;;;;;1.20;1.10;;;0.70;99.90;;;;;;5033277;28;20128;-72
2024/01/07 11:48:59;;;;;;;1.38;1.27;;;0.70;99.90;;;;;;5037991;28;20102;-74
2024/01/07 11:51:30;;;;;;;1.20;1.10;;;0.80;99.90;;;;;;5032576;28;20056;-73
2024/01/07 11:53:57;;;;;;;1.25;1.15;;;0.80;99.90;;;;;;5045416;28;20122;-70
2024/01/07 11:56:24;;;;;;;1.30;1.20;;;0.90;99.90;;;;;;5053366;28;20479;-73
2024/01/07 11:58:50;;;;;;;1.30;1.20;;;0.90;99.90;;;;;;5053115;28;20045;-73
2024/01/07 12:01:16;;;;;;;1.30;1.20;;;0.90;99.90;;;;;;5053256;28;20392;-72
2024/01/07 12:03:43;;;;;;;1.30;1.20;;;0.90;99.90;;;;;;5053155;28;20041;-75
2024/01/07 12:06:13;;;;;;;1.20;1.10;;;0.90;99.90;;;;;;5053090;28;20044;-74
2024/01/07 12:08:43;;;;;;;1.30;1.20;;;0.90;99.90;;;;;;5053420;28;20511;-73
2024/01/07 12:11:15;;;;;;;1.30;1.20;;;0.90;99.90;;;;;;5035632;28;20053;-73
2024/01/07 12:13:42;;;;;;;1.30;1.20;;;0.90;99.90;;;;;;5052949;28;20088;-72
2024/01/07 12:16:08;;;;;;;;;;;0.90;99.90;;;;;;5053267;28;20133;-73
2024/01/07 12:18:36;;;;;;;1.30;1.20;;;0.90;99.90;;;;;;5052311;28;19956;-73
2024/01/07 12:21:02;;;;;;;1.20;1.10;;;0.90;99.90;;;;;;5053246;28;20045;-71
2024/01/07 12:23:28;;;;;;;1.20;1.10;;;1.00;99.90;;;;;;5052851;28;20045;-72
2024/01/07 12:25:55;;;;;;;1.27;1.17;;;1.00;99.90;;;;;;5052830;28;20148;-74
2024/01/07 12:28:21;;;;;;;;;;;1.00;99.90;;;;;;5053356;28;20041;-72
2024/01/07 12:30:50;;;;;;;1.30;1.20;;;1.00;99.90;;;;;;5053531;28;20438;-73
2024/01/07 12:33:19;;;;;;;1.20;1.10;;;1.10;99.90;;;;;;5056734;28;20039;-72
2024/01/07 12:35:48;;;;;;;1.20;1.10;;;1.10;99.90;;;;;;5056175;28;20485;-72
2024/01/07 12:38:14;;;;;;;1.30;1.20;;;1.10;99.90;;;;;;5056529;28;20120;-70
2024/01/07 12:40:40;;;;;;;1.30;1.20;;;1.00;99.90;;;;;;5056321;28;20053;-73
2024/01/07 12:43:06;;;;;;;1.30;1.20;;;1.10;99.90;;;;;;5056184;28;20480;-76
2024/01/07 12:45:33;;;;;;;1.30;1.20;;;1.10;99.90;;;;;;5056589;28;20408;-72
2024/01/07 12:48:01;;;;;;;2.65;2.45;;;1.10;99.90;;;;;;5056110;28;20041;-74
2024/01/07 12:50:29;;;;;;;1.30;1.20;;;1.10;99.90;;;;;;5056358;28;20053;-76